Time;durP1;ratioP1;P1;durP2;ratioP2;P2;SDS_P1;SDS_P2;PMS_P1;PMS_P2;Temp;Humidity;BMP_temperature;BMP_pressure;BME280_temperature;BME280_humidity;BME280_pressure;Samples;Min_cycle;Max_cycle;Signal;HPM_P1;HPM_P2
2022/09/27 00:03:13;;;;;;;;;;;13.70;99.90;;;11.82;100.00;98895.25;10296839;28;98452;-90
2022/09/27 00:08:15;;;;;;;;;;;13.70;99.90;;;11.82;100.00;98889.94;10291791;28;98159;-89
2022/09/27 00:13:18;;;;;;;;;;;13.80;99.90;;;11.83;100.00;98877.44;10302363;28;97367;-89
2022/09/27 00:18:21;;;;;;;;;;;13.70;99.90;;;11.79;100.00;98882.31;10289652;28;96637;-89
2022/09/27 00:23:23;;;;;;;;;;;13.70;99.90;;;11.77;100.00;98882.53;10292028;28;96514;-89
2022/09/27 00:28:27;;;;;;;;;;;13.70;99.90;;;11.78;100.00;98876.19;10301669;28;96818;-90
2022/09/27 00:33:30;;;;;;;;;;;13.70;99.90;;;11.81;100.00;98872.31;10301890;28;98199;-89
2022/09/27 00:38:32;;;;;;;;;;;13.80;99.90;;;11.83;100.00;98869.47;10291441;28;96697;-87
2022/09/27 00:43:44;;;;;;;;;;;13.80;99.90;;;11.81;100.00;98859.00;10292628;28;96754;-87
2022/09/27 00:48:50;;;;;;;;;;;13.80;99.90;;;11.80;100.00;98849.34;10288597;28;98076;-87
2022/09/27 00:53:54;;;;;;;;;;;13.70;99.90;;;11.83;100.00;98848.16;10275600;28;97331;-87
2022/09/27 00:59:02;;;;;;;;;;;13.70;99.90;;;11.83;100.00;98848.16;10271735;28;96605;-86
2022/09/27 01:04:10;;;;;;;;;;;13.80;99.90;;;11.83;100.00;98841.00;10282869;28;96673;-87
2022/09/27 01:09:13;;;;;;;;;;;13.80;99.90;;;11.83;100.00;98835.69;10289458;28;97547;-86
2022/09/27 01:14:22;;;;;;;;;;;13.80;99.90;;;11.85;100.00;98836.28;10272789;28;96673;-86
2022/09/27 01:19:45;;;;;;;;;;;13.80;99.90;;;11.86;100.00;98821.94;10304367;28;96733;-86
2022/09/27 01:25:12;;;;;;;;;;;13.80;99.90;;;11.86;100.00;98826.44;10282858;28;96698;-88
2022/09/27 01:30:25;;;;;;;;;;;13.70;99.90;;;11.84;100.00;98824.00;10286534;28;97981;-89
2022/09/27 01:35:58;;;;;;;;;;;13.80;99.90;;;11.83;100.00;98814.38;10280378;28;96618;-87
2022/09/27 01:41:09;;;;;;;;;;;13.80;99.90;;;11.81;100.00;98811.09;10288011;28;96665;-87
2022/09/27 01:46:45;;;;;;;;;;;13.70;99.90;;;11.79;100.00;98797.16;10258209;28;98163;-88
2022/09/27 01:51:57;;;;;;;;;;;13.70;99.90;;;11.77;100.00;98793.91;10275851;28;96962;-89
2022/09/27 01:57:00;;;;;;;;;;;13.70;99.90;;;11.75;100.00;98793.28;10289288;28;97327;-89
2022/09/27 02:02:08;;;;;;;;;;;13.70;99.90;;;11.69;100.00;98775.47;10288548;28;96832;-89
2022/09/27 02:07:17;;;;;;;;;;;13.60;99.90;;;11.63;100.00;98774.47;10262953;28;96692;-88
2022/09/27 02:12:24;;;;;;;;;;;13.60;99.90;;;11.56;100.00;98784.31;10287903;28;97044;-87
2022/09/27 02:17:40;;;;;;;;;;;13.50;99.90;;;11.42;100.00;98772.91;10293431;28;98118;-87
2022/09/27 02:23:01;;;;;;;;;;;13.30;99.90;;;11.32;100.00;98777.81;10277668;28;96662;-87
2022/09/27 02:28:51;;;;;;;;;;;13.20;99.90;;;11.20;100.00;98782.13;10265722;28;96578;-88
2022/09/27 02:34:08;;;;;;;;;;;13.10;99.90;;;11.11;100.00;98778.88;10259106;28;98318;-86
2022/09/27 02:39:10;;;;;;;;;;;13.00;99.90;;;11.03;100.00;98775.59;10282522;28;96656;-86
2022/09/27 02:44:16;;;;;;;;;;;12.90;99.90;;;10.91;100.00;98781.53;10290585;28;96474;-86
2022/09/27 02:49:56;;;;;;;;;;;12.80;99.90;;;10.78;100.00;98770.91;10293589;28;96581;-86
2022/09/27 02:55:08;;;;;;;;;;;12.70;99.90;;;10.67;100.00;98768.84;10305708;28;98357;-86
2022/09/27 03:00:18;;;;;;;;;;;12.60;99.90;;;10.57;100.00;98765.78;10311188;28;96572;-88
2022/09/27 03:05:31;;;;;;;;;;;12.40;99.90;;;10.46;100.00;98761.88;10269253;28;96684;-89
2022/09/27 03:10:33;;;;;;;;;;;12.30;99.90;;;10.37;100.00;98757.78;10291731;28;96793;-88
2022/09/27 03:15:36;;;;;;;;;;;12.30;99.90;;;10.27;100.00;98742.25;10301689;28;96634;-85
2022/09/27 03:20:39;;;;;;;;;;;12.20;99.90;;;10.18;100.00;98743.41;10286388;28;96745;-87
2022/09/27 03:25:41;;;;;;;;;;;12.10;99.90;;;10.09;100.00;98742.78;10269447;28;96575;-87
2022/09/27 03:30:45;;;;;;;;;;;12.00;99.90;;;10.04;100.00;98744.41;10291806;28;96710;-88
2022/09/27 03:35:48;;;;;;;;;;;11.90;99.90;;;10.00;100.00;98745.81;10293983;28;98297;-86
2022/09/27 03:40:51;;;;;;;;;;;11.90;99.90;;;9.98;100.00;98745.19;10292014;28;96760;-88
2022/09/27 03:45:55;;;;;;;;;;;11.90;99.90;;;9.91;100.00;98732.72;10291020;28;96723;-86
2022/09/27 03:50:58;;;;;;;;;;;11.80;99.90;;;9.85;100.00;98738.00;10309120;28;96553;-89
2022/09/27 03:56:01;;;;;;;;;;;11.80;99.90;;;9.76;100.00;98724.09;10292164;28;96851;-88
2022/09/27 04:01:04;;;;;;;;;;;11.70;99.90;;;9.74;100.00;98730.63;10291154;28;96604;-90
2022/09/27 04:06:07;;;;;;;;;;;11.70;99.90;;;9.72;100.00;98728.19;10291453;28;98507;-86
2022/09/27 04:11:10;;;;;;;;;;;11.70;99.90;;;9.76;100.00;98733.88;10289821;28;96901;-85
2022/09/27 04:16:12;;;;;;;;;;;11.70;99.90;;;9.74;100.00;98734.09;10288621;28;96862;-84
2022/09/27 04:21:15;;;;;;;;;;;11.70;99.90;;;9.80;100.00;98735.94;10286887;28;97980;-84
2022/09/27 04:26:19;;;;;;;;;;;11.80;99.90;;;9.85;100.00;98725.56;10292514;28;97621;-84
2022/09/27 04:31:22;;;;;;;;;;;11.80;99.90;;;9.92;100.00;98718.44;10285183;28;96426;-84
2022/09/27 04:36:26;;;;;;;;;;;11.90;99.90;;;9.97;100.00;98720.50;10293221;28;96510;-84
2022/09/27 04:41:30;;;;;;;;;;;12.00;99.90;;;10.01;100.00;98715.59;10291469;28;96680;-84
2022/09/27 04:46:33;;;;;;;;;;;12.00;99.90;;;10.04;100.00;98721.34;10261526;28;96522;-84
2022/09/27 04:51:36;;;;;;;;;;;12.00;99.90;;;10.12;100.00;98707.06;10289319;28;96696;-84
2022/09/27 04:56:38;;;;;;;;;;;12.10;99.90;;;10.23;100.00;98708.31;10291735;28;96568;-84
2022/09/27 05:01:41;;;;;;;;;;;12.20;99.90;;;10.31;100.00;98711.59;10290661;28;96837;-85
2022/09/27 05:06:44;;;;;;;;;;;12.30;99.90;;;10.42;100.00;98712.84;10291623;28;97146;-84
2022/09/27 05:11:47;;;;;;;;;;;12.40;99.90;;;10.52;100.00;98700.00;10289159;28;96746;-85
2022/09/27 05:16:51;;;;;;;;;;;12.50;99.90;;;10.63;100.00;98687.94;10287204;28;97231;-85
2022/09/27 05:21:54;;;;;;;;;;;12.60;99.90;;;10.72;100.00;98692.81;10288034;28;96638;-84
2022/09/27 05:26:57;;;;;;;;;;;12.70;99.90;;;10.82;100.00;98697.75;10291916;28;96617;-84
2022/09/27 05:32:00;;;;;;;;;;;12.80;99.90;;;10.91;100.00;98698.31;10288127;28;96571;-85
2022/09/27 05:37:03;;;;;;;;;;;12.90;99.90;;;10.99;100.00;98685.66;10269511;28;96947;-85
2022/09/27 05:42:09;;;;;;;;;;;13.00;99.90;;;11.07;100.00;98679.28;10253296;28;98459;-85
2022/09/27 05:47:11;;;;;;;;;;;13.00;99.90;;;11.16;100.00;98682.56;10284139;28;96527;-84
2022/09/27 05:52:14;;;;;;;;;;;13.10;99.90;;;11.20;100.00;98660.63;10295826;28;96759;-85
2022/09/27 05:57:19;;;;;;;;;;;13.20;99.90;;;11.27;100.00;98652.63;10284625;28;96686;-85
2022/09/27 06:02:21;;;;;;;;;;;13.30;99.90;;;11.37;100.00;98653.03;10297476;28;96496;-85
2022/09/27 06:07:24;;;;;;;;;;;13.30;99.90;;;11.44;100.00;98656.47;10294855;28;97991;-85
2022/09/27 06:12:27;;;;;;;;;;;13.40;99.90;;;11.50;100.00;98668.09;10297548;28;96715;-85
2022/09/27 06:17:33;;;;;;;;;;;13.50;99.90;;;11.53;100.00;98683.66;10281036;28;96585;-85
2022/09/27 06:22:36;;;;;;;;;;;13.50;99.90;;;11.54;100.00;98664.00;10296067;28;96553;-86
2022/09/27 06:27:38;;;;;;;;;;;13.60;99.90;;;11.56;100.00;98674.44;10283311;28;96563;-86
2022/09/27 06:32:41;;;;;;;;;;;13.60;99.90;;;11.51;100.00;98667.91;10281326;28;96422;-86
2022/09/27 06:37:45;;;;;;;;;;;13.60;99.90;;;11.45;100.00;98666.06;10263369;28;96431;-86
2022/09/27 06:42:48;;;;;;;;;;;13.50;99.90;;;11.43;100.00;98673.47;10296901;28;96490;-85
2022/09/27 06:47:51;;;;;;;;;;;13.50;99.90;;;11.43;100.00;98673.47;10296194;28;96528;-85
2022/09/27 06:52:54;;;;;;;;;;;13.40;99.90;;;11.43;100.00;98664.66;10356991;28;96502;-86
2022/09/27 07:03:22;;;;;;;;;;;13.50;99.90;;;11.46;100.00;98664.25;10463209;28;19936;-85
2022/09/27 07:08:27;;;;;;;;;;;13.50;99.90;;;11.50;100.00;98652.97;10462350;28;19928;-85
2022/09/27 07:13:33;;;;;;;;;;;13.50;99.90;;;11.55;100.00;98659.50;10460734;28;19936;-85
2022/09/27 07:18:36;;;;;;;;;;;13.60;99.90;;;11.60;100.00;98678.31;10460295;28;19929;-85
2022/09/27 07:23:38;;;;;;;;;;;13.60;99.90;;;11.66;100.00;98678.28;10457094;28;19929;-85
2022/09/27 07:28:41;;;;;;;;;;;13.70;99.90;;;11.69;100.00;98683.16;10444798;28;19929;-85
2022/09/27 07:33:44;;;;;;;;;;;13.70;99.90;;;11.70;100.00;98684.00;10446059;28;19929;-85
2022/09/27 07:38:47;;;;;;;;;;;13.70;99.90;;;11.71;100.00;98677.66;10462447;28;19951;-85
2022/09/27 07:43:49;;;;;;;;;;;13.80;99.90;;;11.80;100.00;98673.69;10446021;28;20320;-85
2022/09/27 07:48:52;;;;;;;;;;;13.80;99.90;;;11.89;100.00;98683.13;10460226;28;19995;-85
2022/09/27 07:53:55;;;;;;;;;;;14.00;99.90;;;11.91;100.00;98683.72;10456780;28;19936;-85
2022/09/27 07:58:58;;;;;;;;;;;14.00;99.90;;;11.97;100.00;98669.53;10462658;28;19929;-85
2022/09/27 08:04:01;;;;;;;;;;;14.10;99.90;;;12.00;100.00;98666.47;10460967;28;20396;-85
2022/09/27 08:09:08;;;;;;;;;;;14.10;99.90;;;12.08;100.00;98654.75;10459118;28;19933;-85
2022/09/27 08:14:11;;;;;;;;;;;14.20;99.90;;;12.18;100.00;98657.75;10457208;28;19979;-85
2022/09/27 08:19:14;;;;;;;;;;;14.20;99.90;;;12.29;100.00;98643.75;10444201;28;20075;-85
2022/09/27 08:24:17;;;;;;;;;;;14.30;99.90;;;12.44;100.00;98654.06;10432210;28;20442;-85
2022/09/27 08:29:20;;;;;;;;;;;14.50;99.90;;;12.56;100.00;98652.31;10421679;28;20028;-85
2022/09/27 08:34:22;;;;;;;;;;;14.60;99.90;;;12.66;100.00;98661.69;10447741;28;19933;-85
2022/09/27 08:39:26;;;;;;;;;;;14.70;99.90;;;12.74;100.00;98653.41;10465712;28;19959;-85
2022/09/27 08:44:53;;;;;;;;;;;14.80;99.90;;;12.83;100.00;98657.41;10503302;28;20011;-85
2022/09/27 08:50:15;;;;;;;;;;;14.90;99.90;;;12.93;100.00;98635.56;10472584;28;19929;-85
2022/09/27 08:55:36;;;;;;;;;;;15.00;99.90;;;13.16;100.00;98630.41;10463727;28;19928;-84
2022/09/27 09:00:39;;;;;;;;;;;15.20;99.90;;;13.31;100.00;98619.38;10477812;28;19935;-84
2022/09/27 09:05:42;;;;;;;;;;;15.30;99.90;;;13.37;100.00;98626.47;10442364;28;20404;-84
2022/09/27 09:16:21;;;;;;;;;;;15.30;99.90;;;13.62;100.00;98621.06;10479444;28;19929;-85
2022/09/27 09:22:02;;;;;;;;;;;15.50;99.90;;;13.74;100.00;98600.56;10486412;28;19956;-85
2022/09/27 09:27:33;;;;;;;;;;;15.70;99.90;;;13.84;100.00;98600.00;10482646;28;20301;-84
2022/09/27 09:33:04;;;;;;;;;;;15.80;99.90;;;13.86;100.00;98592.59;10466416;28;19983;-84
2022/09/27 09:38:20;;;;;;;;;;;15.90;99.90;;;13.89;100.00;98589.44;10466238;28;19929;-84
2022/09/27 09:43:31;;;;;;;;;;;15.90;99.90;;;13.93;100.00;98586.09;10482502;28;20007;-85
2022/09/27 09:48:45;;;;;;;;;;;16.00;99.90;;;14.01;100.00;98574.25;10451496;28;19937;-85
2022/09/27 09:53:56;;;;;;;;;;;16.10;99.90;;;14.04;100.00;98573.00;10444989;28;20718;-84
2022/09/27 09:59:01;;;;;;;;;;;16.10;99.90;;;14.06;100.00;98577.06;10443523;28;20015;-84
2022/09/27 10:04:04;;;;;;;;;;;16.10;99.90;;;14.05;100.00;98566.63;10463398;28;19928;-84
2022/09/27 10:09:10;;;;;;;;;;;16.20;99.90;;;14.02;100.00;98565.19;10463101;28;20053;-84
2022/09/27 10:14:16;;;;;;;;;;;16.10;99.90;;;13.98;100.00;98558.72;10459157;28;20035;-84
2022/09/27 10:19:29;;;;;;;;;;;16.10;99.90;;;13.95;100.00;98559.16;10465260;28;19929;-84
2022/09/27 10:24:55;;;;;;;;;;;16.00;99.90;;;13.93;100.00;98555.91;10445892;28;20289;-84
2022/09/27 10:29:58;;;;;;;;;;;15.90;99.90;;;13.89;100.00;98546.72;10465743;28;19929;-84
2022/09/27 10:35:29;;;;;;;;;;;15.90;99.90;;;13.87;100.00;98546.16;10465007;28;19933;-84
2022/09/27 10:40:34;;;;;;;;;;;15.80;99.90;;;13.85;100.00;98548.22;10482329;28;19929;-85
2022/09/27 10:45:37;;;;;;;;;;;15.80;99.90;;;13.83;100.00;98539.63;10478816;28;19932;-84
2022/09/27 10:50:54;;;;;;;;;;;15.80;99.90;;;13.83;100.00;98545.78;10465824;28;19974;-85
2022/09/27 10:56:00;;;;;;;;;;;15.80;99.90;;;13.78;100.00;98534.97;10469575;28;19929;-84
2022/09/27 11:01:08;;;;;;;;;;;15.80;99.90;;;13.77;100.00;98540.53;10463301;28;19936;-85
2022/09/27 11:06:23;;;;;;;;;;;15.70;99.90;;;13.74;100.00;98525.81;10461811;28;20360;-84
2022/09/27 11:11:27;;;;;;;;;;;15.70;99.90;;;13.71;100.00;98520.91;10462607;28;19928;-84
2022/09/27 11:16:45;;;;;;;;;;;15.70;99.90;;;13.75;100.00;98521.28;10446860;28;19935;-84
2022/09/27 11:22:09;;;;;;;;;;;15.70;99.90;;;13.78;100.00;98499.44;10459416;28;19929;-84
2022/09/27 11:27:34;;;;;;;;;;;15.70;99.90;;;13.83;100.00;98510.25;10476949;28;19928;-84
2022/09/27 11:32:56;;;;;;;;;;;15.80;99.90;;;13.88;100.00;98494.38;10499820;28;20020;-84
2022/09/27 11:38:17;;;;;;;;;;;15.80;99.90;;;13.96;100.00;98479.84;10462147;28;20024;-85
2022/09/27 11:44:06;;;;;;;;;;;15.90;99.90;;;14.07;100.00;98477.19;10457610;28;19929;-83
2022/09/27 11:49:08;;;;;;;;;;;16.00;99.90;;;14.15;100.00;98455.50;10476918;28;19999;-84
2022/09/27 11:54:36;;;;;;;;;;;16.10;99.90;;;14.21;100.00;98464.41;10461400;28;19928;-84
2022/09/27 11:59:51;;;;;;;;;;;16.20;99.90;;;14.24;100.00;98450.59;10467436;28;19935;-95
2022/09/27 12:05:19;;;;;;;;;;;16.20;99.90;;;14.26;100.00;98440.47;10462232;28;19987;-95
2022/09/27 12:10:22;;;;;;;;;;;16.20;99.90;;;14.27;100.00;98439.44;10427012;28;19930;-96
2022/09/27 12:15:41;;;;;;;;;;;16.20;99.90;;;14.29;100.00;98433.88;10441494;28;19943;-96
2022/09/27 12:20:44;;;;;;;;;;;16.30;99.90;;;14.36;100.00;98421.19;10460095;28;19929;-96
2022/09/27 12:25:51;;;;;;;;;;;16.30;99.90;;;14.42;100.00;98420.25;10446723;28;19930;-95
2022/09/27 12:31:00;;;;;;;;;;;16.40;99.90;;;14.49;100.00;98420.94;10442423;28;20404;-95
2022/09/27 12:36:29;;;;;;;;;;;16.50;99.90;;;14.50;100.00;98408.41;10422908;28;19995;-95
2022/09/27 12:41:40;;;;;;;;;;;16.40;99.90;;;14.54;100.00;98402.34;10440844;28;19933;-95
2022/09/27 12:46:51;;;;;;;;;;;16.50;99.90;;;14.57;100.00;98403.72;10456017;28;19936;-90
2022/09/27 12:52:00;;;;;;;;;;;16.50;99.90;;;14.59;100.00;98404.31;10452147;28;20067;-87
2022/09/27 12:57:18;;;;;;;;;;;16.60;99.90;;;14.58;100.00;98394.69;10458138;28;19932;-87
2022/09/27 13:02:40;;;;;;;;;;;16.50;99.90;;;14.55;100.00;98390.59;10459821;28;19936;-86
2022/09/27 13:08:24;;;;;;;;;;;16.50;99.90;;;14.56;100.00;98373.50;10454149;28;20285;-87
2022/09/27 13:13:28;;;;;;;;;;;16.50;99.90;;;14.57;100.00;98369.78;10467941;28;20419;-86
2022/09/27 13:18:48;;;;;;;;;;;16.50;99.90;;;14.61;100.00;98364.78;10457635;28;19968;-87
2022/09/27 13:23:50;;;;;;;;;;;16.50;99.90;;;14.65;100.00;98366.75;10456276;28;19975;-87
2022/09/27 13:28:59;;;;;;;;;;;16.60;99.90;;;14.67;100.00;98367.31;10458096;28;20027;-87
2022/09/27 13:34:02;;;;;;;;;;;16.60;99.90;;;14.71;100.00;98368.47;10446794;28;19979;-88
2022/09/27 13:39:10;;;;;;;;;;;16.60;99.90;;;14.69;100.00;98367.91;10443416;28;20383;-88
2022/09/27 13:44:15;;;;;;;;;;;16.60;99.90;;;14.67;100.00;98361.16;10455790;28;20016;-86
2022/09/27 13:49:29;;;;;;;;;;;16.60;99.90;;;14.63;100.00;98350.16;10447815;28;20185;-87
2022/09/27 13:54:49;;;;;;;;;;;16.50;99.90;;;14.64;100.00;98342.94;10455761;28;19928;-87
2022/09/27 13:59:55;;;;;;;;;;;16.50;99.90;;;14.61;100.00;98333.53;10431005;28;19937;-86
2022/09/27 14:05:00;;;;;;;;;;;16.50;99.90;;;14.57;100.00;98385.81;10459331;28;19935;-85
2022/09/27 14:10:04;;;;;;;;;;;16.50;99.90;;;14.27;100.00;98385.19;10423538;28;19965;-84
2022/09/27 14:15:13;;;;;;;;;;;16.20;99.90;;;13.77;100.00;98413.22;10435494;28;19929;-84
2022/09/27 14:20:31;;;;;;;;;;;15.70;99.90;;;13.25;100.00;98401.53;10476701;28;20311;-85
2022/09/27 14:25:38;;;;;;;;;;;15.20;99.90;;;12.94;100.00;98408.72;10447339;28;19936;-85
2022/09/27 14:30:42;;;;;;;;;;;14.80;99.90;;;12.72;100.00;98407.63;10486664;28;20308;-87
2022/09/27 14:41:09;;;;;;;;;;;14.40;99.90;;;12.50;100.00;98402.75;10453272;28;20397;-89
2022/09/27 14:46:30;;;;;;;;;;;14.30;99.90;;;12.48;100.00;98414.69;10461581;28;19936;-89
2022/09/27 14:51:34;;;;;;;;;;;14.30;99.90;;;12.39;100.00;98422.16;10457617;28;20010;-89
2022/09/27 14:56:37;;;;;;;;;;;14.20;99.90;;;12.31;100.00;98411.81;10440952;28;20007;-88
2022/09/27 15:01:49;;;;;;;;;;;14.10;99.90;;;12.31;100.00;98422.44;10442271;28;19933;-88
2022/09/27 15:06:52;;;;;;;;;;;14.10;99.90;;;12.33;100.00;98431.84;10444422;28;19936;-88
2022/09/27 15:11:59;;;;;;;;;;;14.10;99.90;;;12.43;100.00;98434.00;10456370;28;20446;-85
2022/09/27 15:17:04;;;;;;;;;;;14.30;99.90;;;12.51;100.00;98439.00;10444500;28;19929;-87
2022/09/27 15:22:34;;;;;;;;;;;14.40;99.90;;;12.56;100.00;98452.47;10445692;28;19929;-87
2022/09/27 15:27:37;;;;;;;;;;;14.40;99.90;;;12.55;100.00;98453.53;10455502;28;20028;-89
2022/09/27 15:32:47;;;;;;;;;;;14.40;99.90;;;12.48;100.00;98457.31;10454868;28;19930;-89
2022/09/27 15:37:50;;;;;;;;;;;14.30;99.90;;;12.39;100.00;98466.63;10457106;28;20404;-88
2022/09/27 15:43:01;;;;;;;;;;;14.30;99.90;;;12.20;100.00;98466.59;10445350;28;20071;-88
2022/09/27 15:48:18;;;;;;;;;;;14.10;99.90;;;11.88;100.00;98468.56;10430643;28;19929;-87
2022/09/27 15:53:40;;;;;;;;;;;13.80;99.90;;;11.59;100.00;98463.84;10445172;28;19936;-88
2022/09/27 15:58:44;;;;;;;;;;;13.50;99.90;;;11.35;100.00;98468.94;10458706;28;20066;-88
2022/09/27 16:03:47;;;;;;;;;;;13.30;99.90;;;11.15;100.00;98478.84;10460136;28;20348;-85
2022/09/27 16:08:49;;;;;;;;;;;13.00;99.90;;;11.00;100.00;98481.81;10457044;28;19959;-86
2022/09/27 16:13:53;;;;;;;;;;;12.90;99.90;;;10.89;100.00;98483.28;10435392;28;19936;-86
2022/09/27 16:18:56;;;;;;;;;;;12.80;99.90;;;10.83;100.00;98492.09;10451897;28;19929;-86
2022/09/27 16:23:59;;;;;;;;;;;12.70;99.90;;;10.79;100.00;98500.69;10457151;28;19929;-87
2022/09/27 16:29:12;;;;;;;;;;;12.70;99.90;;;10.76;100.00;98512.56;10449483;28;19956;-88
2022/09/27 16:34:16;;;;;;;;;;;12.70;99.90;;;10.75;100.00;98520.75;10430654;28;20023;-89
2022/09/27 16:39:18;;;;;;;;;;;12.70;99.90;;;10.70;100.00;98508.09;10449008;28;19928;-89
2022/09/27 16:44:21;;;;;;;;;;;12.70;99.90;;;10.73;100.00;98505.00;10441367;28;19968;-90
2022/09/27 16:54:50;;;;;;;;;;;12.70;99.90;;;10.75;100.00;98526.88;10458367;28;19929;-89
2022/09/27 16:59:55;;;;;;;;;;;12.80;99.90;;;10.76;100.00;98533.81;10434642;28;19929;-90
2022/09/27 17:04:58;;;;;;;;;;;12.80;99.90;;;10.75;100.00;98548.16;10456577;28;19964;-90
2022/09/27 17:10:01;;;;;;;;;;;12.80;99.90;;;10.79;100.00;98533.41;10431765;28;19936;-90
2022/09/27 17:15:04;;;;;;;;;;;12.90;99.90;;;10.83;100.00;98531.97;10434571;28;19928;-90
2022/09/27 17:20:07;;;;;;;;;;;12.90;99.90;;;10.89;100.00;98544.41;10458457;28;20465;-89
2022/09/27 17:25:09;;;;;;;;;;;12.90;99.90;;;10.90;100.00;98550.53;10465790;28;19935;-90
2022/09/27 17:30:12;;;;;;;;;;;13.00;99.90;;;10.90;100.00;98553.19;10451155;28;19929;-90
2022/09/27 17:35:15;;;;;;;;;;;13.00;99.90;;;10.93;100.00;98555.44;10439794;28;19929;-90
2022/09/27 17:40:18;;;;;;;;;;;13.00;99.90;;;10.96;100.00;98571.78;10441424;28;20507;-90
2022/09/27 17:45:21;;;;;;;;;;;13.00;99.90;;;10.96;100.00;98569.09;10446258;28;19975;-90
2022/09/27 17:50:23;;;;;;;;;;;13.00;99.90;;;10.96;100.00;98571.78;10457694;28;19933;-90
2022/09/27 17:55:26;;;;;;;;;;;13.00;99.90;;;10.96;100.00;98573.63;10445043;28;20401;-89
2022/09/27 18:00:29;;;;;;;;;;;13.00;99.90;;;10.99;100.00;98559.91;10442492;28;20032;-90
2022/09/27 18:05:32;;;;;;;;;;;13.00;99.90;;;10.97;100.00;98572.56;10445351;28;19928;-88
2022/09/27 18:10:36;;;;;;;;;;;13.00;99.90;;;10.97;100.00;98584.06;10461842;28;19936;-89
2022/09/27 18:15:40;;;;;;;;;;;13.00;99.90;;;10.99;100.00;98574.03;10461492;28;20023;-90
2022/09/27 18:20:42;;;;;;;;;;;13.00;99.90;;;10.98;100.00;98591.00;10460847;28;20377;-90
2022/09/27 18:25:52;;;;;;;;;;;13.00;99.90;;;11.02;100.00;98594.03;10470199;28;19936;-90
2022/09/27 18:31:07;;;;;;;;;;;13.00;99.90;;;11.02;100.00;98609.97;10460650;28;20356;-91
2022/09/27 18:36:21;;;;;;;;;;;13.00;99.90;;;10.99;100.00;98610.41;10449621;28;20023;-90
2022/09/27 18:41:29;;;;;;;;;;;13.00;99.90;;;11.01;100.00;98611.00;10427374;28;19936;-91
2022/09/27 18:46:34;;;;;;;;;;;13.00;99.90;;;11.03;100.00;98618.78;10423559;28;19937;-90
2022/09/27 18:51:43;;;;;;;;;;;13.00;99.90;;;11.06;100.00;98607.72;10442842;28;19935;-92
2022/09/27 18:56:47;;;;;;;;;;;13.10;99.90;;;11.10;100.00;98611.63;10457831;28;19976;-85
2022/09/27 19:01:50;;;;;;;;;;;13.10;99.90;;;11.08;100.00;98625.09;10457026;28;19961;-84
2022/09/27 19:06:53;;;;;;;;;;;13.10;99.90;;;11.10;100.00;98635.53;10463631;28;19936;-83
2022/09/27 19:11:56;;;;;;;;;;;13.10;99.90;;;11.11;100.00;98650.47;10441575;28;20510;-85
2022/09/27 19:16:58;;;;;;;;;;;13.10;99.90;;;11.12;100.00;98644.13;10459528;28;19972;-84
2022/09/27 19:22:01;;;;;;;;;;;13.10;99.90;;;11.16;100.00;98650.66;10459662;28;19933;-82
2022/09/27 19:27:04;;;;;;;;;;;13.20;99.90;;;11.19;100.00;98642.25;10457674;28;19983;-85
2022/09/27 19:32:06;;;;;;;;;;;13.20;99.90;;;11.18;100.00;98645.94;10452674;28;19929;-83
2022/09/27 19:37:09;;;;;;;;;;;13.20;99.90;;;11.18;100.00;98659.22;10461179;28;19929;-86
2022/09/27 19:42:12;;;;;;;;;;;13.20;99.90;;;11.22;100.00;98660.47;10443132;28;19936;-91
2022/09/27 19:47:16;;;;;;;;;;;13.20;99.90;;;11.24;100.00;98658.38;10464930;28;19929;-90
2022/09/27 19:52:19;;;;;;;;;;;13.30;99.90;;;11.24;100.00;98653.88;10450310;28;19929;-92
2022/09/27 19:57:22;;;;;;;;;;;13.30;99.90;;;11.29;100.00;98645.28;10478807;28;19995;-96
2022/09/27 20:02:24;;;;;;;;;;;13.30;99.90;;;11.28;100.00;98648.97;10447417;28;19967;-85
2022/09/27 20:07:27;;;;;;;;;;;13.30;99.90;;;11.30;100.00;98657.56;10459878;28;19929;-87
2022/09/27 20:12:30;;;;;;;;;;;13.30;99.90;;;11.31;100.00;98661.84;10444011;28;19932;-86
2022/09/27 20:17:33;;;;;;;;;;;13.30;99.90;;;11.31;100.00;98656.53;10435348;28;19935;-85
2022/09/27 20:22:35;;;;;;;;;;;13.30;99.90;;;11.32;100.00;98655.50;10473170;28;19929;-85
2022/09/27 20:27:38;;;;;;;;;;;13.30;99.90;;;11.33;100.00;98673.06;10460120;28;19968;-84
2022/09/27 20:33:39;;;;;;;;;;;13.30;99.90;;;11.30;100.00;98668.19;10426992;28;20317;-85
2022/09/27 20:38:03;;;;;;;;;;;13.30;99.90;;;11.30;100.00;98662.06;10435038;28;20401;-84
2022/09/27 20:43:06;;;;;;;;;;;13.30;99.90;;;11.26;100.00;98659.00;10450381;28;20373;-84
2022/09/27 20:48:09;;;;;;;;;;;13.20;99.90;;;11.19;100.00;98661.69;10435070;28;20336;-85
2022/09/27 20:53:12;;;;;;;;;;;13.10;99.90;;;11.16;100.00;98662.09;10452198;28;19929;-84
2022/09/27 20:58:16;;;;;;;;;;;13.10;99.90;;;11.11;100.00;98658.44;10454309;28;19929;-83
2022/09/27 21:03:19;;;;;;;;;;;13.10;99.90;;;11.07;100.00;98657.22;10456291;28;19929;-83
2022/09/27 21:08:23;;;;;;;;;;;13.00;99.90;;;11.06;100.00;98656.41;10455756;28;20300;-82
2022/09/27 21:13:29;;;;;;;;;;;13.00;99.90;;;11.02;100.00;98665.00;10456399;28;19952;-82
2022/09/27 21:18:32;;;;;;;;;;;12.90;99.90;;;10.99;100.00;98676.88;10456021;28;19929;-82
2022/09/27 21:23:36;;;;;;;;;;;12.90;99.90;;;10.96;100.00;98666.63;10454966;28;19929;-85
2022/09/27 21:28:47;;;;;;;;;;;12.90;99.90;;;10.94;100.00;98685.44;10454054;28;19929;-85
2022/09/27 21:33:52;;;;;;;;;;;12.90;99.90;;;10.86;99.00;98661.75;10453792;28;20285;-86
2022/09/27 21:38:56;;;;;;;;;;;12.80;99.90;;;10.79;98.36;98660.94;10453044;28;19929;-85
2022/09/27 21:44:03;;;;;;;;;;;12.80;99.90;;;10.73;97.41;98651.13;10471548;28;19929;-83
2022/09/27 21:49:06;;;;;;;;;;;12.70;99.90;;;10.65;95.56;98668.09;10452961;28;20289;-84
2022/09/27 21:54:14;;;;;;;;;;;12.60;99.90;;;10.59;94.21;98681.41;10467346;28;19937;-84
2022/09/27 21:59:17;;;;;;;;;;;12.50;99.90;;;10.54;93.77;98678.53;10454402;28;20400;-84
2022/09/27 22:04:20;;;;;;;;;;;12.50;99.90;;;10.51;93.71;98686.94;10454547;28;20011;-84
2022/09/27 22:09:22;;;;;;;;;;;12.50;99.90;;;10.42;94.42;98695.06;10452042;28;19929;-84
2022/09/27 22:14:25;;;;;;;;;;;12.40;99.90;;;10.35;94.21;98702.22;10464816;28;19936;-85
2022/09/27 22:19:28;;;;;;;;;;;12.40;99.90;;;10.32;94.46;98697.34;10452744;28;19929;-85
2022/09/27 22:24:30;;;;;;;;;;;12.40;99.90;;;10.28;95.06;98697.94;10472276;28;19929;-85
2022/09/27 22:29:33;;;;;;;;;;;12.30;99.90;;;10.17;95.19;98678.06;10464924;28;19936;-85
2022/09/27 22:34:36;;;;;;;;;;;12.30;99.90;;;10.13;95.75;98690.91;10443803;28;19968;-86
2022/09/27 22:39:39;;;;;;;;;;;12.20;99.90;;;10.07;95.68;98706.84;10458761;28;20012;-85
2022/09/27 22:44:42;;;;;;;;;;;12.10;99.90;;;10.01;95.76;98702.31;10464448;28;20014;-85
2022/09/27 22:49:44;;;;;;;;;;;12.10;99.90;;;9.97;95.84;98696.63;10460737;28;19929;-85
2022/09/27 22:54:48;;;;;;;;;;;12.10;99.90;;;9.88;96.13;98706.56;10462190;28;20523;-85
2022/09/27 22:59:51;;;;;;;;;;;12.00;99.90;;;9.80;95.96;98713.91;10461378;28;19929;-85
2022/09/27 23:04:54;;;;;;;;;;;11.90;99.90;;;9.74;95.95;98728.78;10457619;28;19929;-85
2022/09/27 23:09:57;;;;;;;;;;;11.80;99.90;;;9.70;96.01;98730.19;10458673;28;20416;-85
2022/09/27 23:15:00;;;;;;;;;;;11.80;99.90;;;9.65;95.92;98728.16;10461935;28;19976;-85
2022/09/27 23:20:03;;;;;;;;;;;11.70;99.90;;;9.59;95.99;98715.66;10443830;28;19951;-85
2022/09/27 23:25:06;;;;;;;;;;;11.70;99.90;;;9.55;95.64;98716.25;10468698;28;19935;-86